Time;durP1;ratioP1;P1;durP2;ratioP2;P2;SDS_P1;SDS_P2;PMS_P1;PMS_P2;Temp;Humidity;BMP_temperature;BMP_pressure;BME280_temperature;BME280_humidity;BME280_pressure;Samples;Min_cycle;Max_cycle;Signal;HPM_P1;HPM_P2
2023/01/11 00:00:26;;;;;;;5.70;1.67;;;18.00;1.00;;;;;;5014812;28;20124;-38
2023/01/11 00:03:01;;;;;;;5.22;1.30;;;18.00;1.00;;;;;;5014418;28;20559;-38
2023/01/11 00:05:28;;;;;;;8.90;3.20;;;18.00;1.00;;;;;;5014739;28;20053;-38
2023/01/11 00:07:55;;;;;;;8.15;1.65;;;17.90;1.00;;;;;;5014500;28;20561;-38
2023/01/11 00:10:22;;;;;;;8.52;2.08;;;17.90;1.00;;;;;;5014345;28;20528;-38
2023/01/11 00:12:49;;;;;;;6.65;1.90;;;17.90;1.00;;;;;;5014308;28;20049;-38
2023/01/11 00:15:16;;;;;;;11.85;1.92;;;17.90;1.00;;;;;;5014285;28;20494;-38
2023/01/11 00:17:42;;;;;;;9.25;2.03;;;17.90;1.00;;;;;;5014368;28;20050;-38
2023/01/11 00:20:10;;;;;;;6.80;1.58;;;17.80;1.00;;;;;;5014362;28;20046;-38
2023/01/11 00:22:36;;;;;;;9.48;2.00;;;17.80;1.00;;;;;;5014246;28;20038;-38
2023/01/11 00:25:04;;;;;;;9.32;3.00;;;17.80;1.00;;;;;;5014317;28;20042;-38
2023/01/11 00:27:31;;;;;;;7.57;2.60;;;17.70;1.00;;;;;;5014338;28;20041;-38
2023/01/11 00:29:58;;;;;;;5.22;1.70;;;17.70;1.00;;;;;;5013044;28;20053;-38
2023/01/11 00:32:26;;;;;;;15.35;1.85;;;17.70;1.00;;;;;;5013943;28;20088;-38
2023/01/11 00:34:53;;;;;;;6.30;1.55;;;17.70;1.00;;;;;;5013948;28;20076;-38
2023/01/11 00:37:20;;;;;;;7.70;1.95;;;17.70;1.00;;;;;;5014038;28;20046;-38
2023/01/11 00:39:47;;;;;;;6.07;1.67;;;17.60;1.00;;;;;;5013972;28;20037;-38
2023/01/11 00:47:59;;;;;;;8.35;1.80;;;17.60;1.00;;;;;;5012684;28;20050;-37
2023/01/11 00:50:30;;;;;;;4.60;1.33;;;17.60;1.00;;;;;;5013759;28;20053;-37
2023/01/11 00:52:57;;;;;;;17.30;2.90;;;17.50;1.00;;;;;;5012429;28;20045;-37
2023/01/11 00:55:25;;;;;;;5.65;1.67;;;17.50;1.00;;;;;;5013562;28;20081;-37
2023/01/11 00:57:52;;;;;;;5.55;1.75;;;17.50;1.00;;;;;;5012497;28;20042;-37
2023/01/11 01:00:20;;;;;;;11.25;2.55;;;17.50;1.00;;;;;;5013626;28;20077;-38
2023/01/11 01:02:47;;;;;;;8.88;2.95;;;17.40;1.00;;;;;;5013368;28;20042;-37
2023/01/11 01:05:14;;;;;;;5.95;2.08;;;17.40;1.00;;;;;;5013466;28;20046;-37
2023/01/11 01:07:41;;;;;;;8.02;1.73;;;17.40;1.00;;;;;;5013520;28;20069;-37
2023/01/11 01:10:10;;;;;;;8.35;2.20;;;17.40;1.00;;;;;;5013382;28;20104;-37
2023/01/11 01:15:22;;;;;;;8.82;1.80;;;17.30;1.00;;;;;;5013273;28;20050;-37
2023/01/11 01:17:53;;;;;;;6.60;1.73;;;17.30;1.00;;;;;;5011973;28;20042;-37
2023/01/11 01:20:21;;;;;;;8.68;2.00;;;17.30;1.00;;;;;;5012287;28;20066;-38
2023/01/11 01:22:48;;;;;;;8.93;2.40;;;17.30;1.00;;;;;;5012999;28;20041;-37
2023/01/11 01:25:15;;;;;;;8.95;2.08;;;17.30;1.00;;;;;;5013116;28;20215;-37
2023/01/11 01:27:42;;;;;;;6.95;2.45;;;17.30;1.00;;;;;;5013132;28;20042;-37
2023/01/11 01:30:09;;;;;;;12.00;2.38;;;17.30;1.00;;;;;;5013066;28;20080;-38
2023/01/11 01:32:36;;;;;;;11.68;2.47;;;17.20;1.00;;;;;;5011541;28;20597;-37
2023/01/11 01:35:04;;;;;;;7.68;2.88;;;17.20;1.00;;;;;;5012817;28;20124;-37
2023/01/11 01:37:30;;;;;;;9.35;2.47;;;17.20;1.00;;;;;;5013033;28;20125;-37
2023/01/11 01:39:57;;;;;;;10.25;2.10;;;17.20;1.00;;;;;;5012915;28;20099;-37
2023/01/11 01:42:24;;;;;;;12.35;2.00;;;17.20;1.00;;;;;;5012709;28;20069;-37
2023/01/11 01:45:05;;;;;;;10.73;2.00;;;17.20;1.00;;;;;;5012539;28;20042;-37
2023/01/11 01:47:44;;;;;;;9.60;2.92;;;17.10;1.00;;;;;;5012787;28;20108;-37
2023/01/11 01:50:21;;;;;;;8.85;2.50;;;17.10;1.00;;;;;;5012714;28;20096;-37
2023/01/11 01:52:51;;;;;;;9.25;2.70;;;17.10;1.00;;;;;;5012458;28;20054;-37
2023/01/11 01:55:25;;;;;;;11.82;2.15;;;17.10;1.00;;;;;;5012656;28;20046;-37
2023/01/11 01:57:53;;;;;;;6.20;2.00;;;17.10;1.00;;;;;;5012610;28;20508;-37
2023/01/11 02:00:20;;;;;;;8.18;2.58;;;17.10;1.00;;;;;;5012458;28;20034;-37
2023/01/11 02:02:48;;;;;;;9.40;2.47;;;17.10;1.00;;;;;;5012203;28;20046;-37
2023/01/11 02:05:17;;;;;;;11.13;1.80;;;17.00;1.00;;;;;;5012303;28;20046;-37
2023/01/11 02:07:45;;;;;;;11.13;1.90;;;17.00;1.00;;;;;;5012486;28;20125;-37
2023/01/11 02:10:16;;;;;;;10.43;2.97;;;17.00;1.00;;;;;;5012358;28;20089;-38
2023/01/11 02:13:07;;;;;;;10.90;3.13;;;17.00;1.00;;;;;;5012242;28;20080;-37
2023/01/11 02:15:35;;;;;;;9.48;1.80;;;17.00;1.00;;;;;;5012323;28;20049;-37
2023/01/11 02:18:01;;;;;;;9.85;2.47;;;16.90;1.00;;;;;;5012373;28;20073;-37
2023/01/11 02:21:00;;;;;;;9.57;2.90;;;16.90;1.00;;;;;;5012066;28;20042;-37
2023/01/11 02:24:13;;;;;;;9.77;2.45;;;16.90;1.00;;;;;;5010617;28;20497;-37
2023/01/11 02:27:15;;;;;;;11.32;2.70;;;16.90;1.00;;;;;;5012133;28;20041;-37
2023/01/11 02:30:05;;;;;;;9.95;2.22;;;16.90;1.00;;;;;;5012304;28;20104;-37
2023/01/11 02:33:06;;;;;;;10.52;2.25;;;16.80;1.00;;;;;;5011807;28;20092;-37
2023/01/11 02:35:55;;;;;;;8.90;2.42;;;16.80;1.00;;;;;;5010087;28;20096;-37
2023/01/11 02:38:34;;;;;;;9.25;2.50;;;16.80;1.00;;;;;;5012097;28;20552;-37
2023/01/11 02:41:11;;;;;;;10.95;2.45;;;16.80;1.00;;;;;;5010815;28;20396;-37
2023/01/11 02:47:05;;;;;;;8.60;3.45;;;16.80;1.00;;;;;;4972518;28;20054;-37
2023/01/11 02:49:42;;;;;;;11.52;2.55;;;16.70;1.00;;;;;;4973021;28;20039;-36
2023/01/11 02:52:21;;;;;;;9.23;2.60;;;16.70;1.00;;;;;;4973336;28;20051;-36
2023/01/11 02:54:53;;;;;;;10.18;2.70;;;16.70;1.00;;;;;;4972849;28;20047;-37
2023/01/11 02:57:23;;;;;;;12.55;2.15;;;16.70;1.00;;;;;;4972982;28;20158;-37
2023/01/11 02:59:53;;;;;;;8.80;2.05;;;16.70;1.00;;;;;;4972905;28;20098;-36
2023/01/11 03:02:20;;;;;;;10.43;2.20;;;16.70;1.00;;;;;;4972485;28;20447;-37
2023/01/11 03:04:47;;;;;;;9.23;2.25;;;16.70;1.00;;;;;;4972577;28;20058;-37
2023/01/11 03:07:22;;;;;;;15.38;2.95;;;16.60;1.00;;;;;;4972680;28;20039;-37
2023/01/11 03:10:05;;;;;;;12.00;2.75;;;16.60;1.00;;;;;;4972839;28;20077;-37
2023/01/11 03:13:05;;;;;;;12.57;2.15;;;16.60;1.00;;;;;;4971282;28;20101;-37
2023/01/11 03:16:00;;;;;;;14.38;2.65;;;16.60;1.00;;;;;;4968002;28;20046;-36
2023/01/11 03:18:51;;;;;;;8.80;1.90;;;16.60;1.00;;;;;;4967368;28;20558;-37
2023/01/11 03:21:26;;;;;;;8.13;2.63;;;16.60;1.00;;;;;;4972684;28;20491;-37
2023/01/11 03:24:02;;;;;;;10.32;2.40;;;16.60;1.00;;;;;;4972189;28;20051;-37
2023/01/11 03:26:47;;;;;;;9.38;2.50;;;16.60;1.00;;;;;;4972473;28;20455;-36
2023/01/11 03:29:38;;;;;;;9.80;2.30;;;16.60;1.00;;;;;;4972591;28;20102;-37
2023/01/11 03:32:32;;;;;;;9.85;2.55;;;16.50;1.00;;;;;;4972527;28;20066;-36
2023/01/11 03:35:16;;;;;;;13.18;3.22;;;16.50;1.00;;;;;;4972515;28;20047;-37
2023/01/11 03:37:46;;;;;;;7.57;2.30;;;16.50;1.00;;;;;;4972469;28;20042;-36
2023/01/11 03:40:22;;;;;;;7.43;1.73;;;16.50;1.00;;;;;;4972727;28;20043;-37
2023/01/11 03:43:12;;;;;;;10.88;2.33;;;16.50;1.00;;;;;;4972236;28;20047;-37
2023/01/11 03:45:44;;;;;;;11.68;3.30;;;16.50;1.00;;;;;;4974661;28;20055;-37
2023/01/11 03:48:18;;;;;;;10.55;2.50;;;16.50;1.00;;;;;;4975869;28;20035;-37
2023/01/11 03:50:48;;;;;;;6.32;2.00;;;16.50;1.00;;;;;;4975925;28;20415;-36
2023/01/11 03:53:18;;;;;;;9.02;2.20;;;16.40;1.00;;;;;;4975630;28;20047;-37
2023/01/11 03:55:48;;;;;;;14.50;2.70;;;16.40;1.00;;;;;;4975806;28;20047;-37
2023/01/11 03:58:15;;;;;;;13.93;2.40;;;16.40;1.00;;;;;;4975796;28;20042;-37
2023/01/11 04:00:42;;;;;;;9.60;2.03;;;16.40;1.00;;;;;;4975523;28;20070;-37
2023/01/11 04:03:11;;;;;;;16.38;2.13;;;16.40;1.00;;;;;;4975413;28;20043;-37
2023/01/11 04:05:42;;;;;;;8.20;2.08;;;16.40;1.00;;;;;;4975582;28;20054;-37
2023/01/11 04:08:10;;;;;;;10.65;1.95;;;16.40;1.00;;;;;;4975644;28;20094;-37
2023/01/11 04:10:37;;;;;;;15.13;2.17;;;16.40;1.00;;;;;;4975654;28;20070;-37
2023/01/11 04:13:03;;;;;;;9.82;2.40;;;16.40;1.00;;;;;;4975200;28;20039;-37
2023/01/11 04:15:33;;;;;;;9.50;2.83;;;16.40;1.00;;;;;;4975297;28;20054;-37
2023/01/11 04:18:03;;;;;;;9.55;2.55;;;16.40;1.00;;;;;;4975512;28;20078;-37
2023/01/11 04:20:35;;;;;;;8.82;2.13;;;16.40;1.00;;;;;;4975369;28;20043;-37
2023/01/11 04:23:04;;;;;;;7.25;1.83;;;16.30;1.00;;;;;;4973887;28;20042;-37
2023/01/11 04:25:31;;;;;;;9.77;3.00;;;16.30;1.00;;;;;;4975233;28;20053;-37
2023/01/11 04:27:58;;;;;;;8.65;2.13;;;16.30;1.00;;;;;;4975227;28;20129;-37
2023/01/11 04:30:25;;;;;;;8.32;2.15;;;16.30;1.00;;;;;;4975192;28;20085;-37
2023/01/11 04:32:52;;;;;;;8.93;2.22;;;16.30;1.00;;;;;;4974902;28;20081;-37
2023/01/11 04:35:19;;;;;;;10.75;2.55;;;16.30;1.00;;;;;;4975087;28;20073;-37
2023/01/11 04:37:45;;;;;;;7.15;2.30;;;16.30;1.00;;;;;;4975033;28;20050;-37
2023/01/11 04:40:12;;;;;;;9.00;2.33;;;16.30;1.00;;;;;;4974817;28;20042;-37
2023/01/11 04:42:39;;;;;;;7.90;1.98;;;16.30;1.00;;;;;;4974701;28;20065;-37
2023/01/11 04:45:06;;;;;;;4.80;1.83;;;16.30;1.00;;;;;;4974755;28;20047;-37
2023/01/11 04:47:33;;;;;;;16.10;2.95;;;16.30;1.00;;;;;;4974999;28;20043;-37
2023/01/11 04:50:00;;;;;;;8.30;2.10;;;16.30;1.00;;;;;;4974852;28;20061;-38
2023/01/11 04:52:27;;;;;;;8.65;1.80;;;16.30;1.00;;;;;;4974472;28;20085;-38
2023/01/11 04:54:54;;;;;;;13.35;1.85;;;16.20;1.00;;;;;;4974456;28;20046;-37
2023/01/11 04:57:20;;;;;;;6.53;1.67;;;16.20;1.00;;;;;;4974733;28;20047;-38
2023/01/11 04:59:47;;;;;;;5.97;2.60;;;16.20;1.00;;;;;;4974611;28;20042;-37
2023/01/11 05:02:15;;;;;;;7.95;2.20;;;16.20;1.00;;;;;;4974404;28;20047;-37
2023/01/11 05:04:42;;;;;;;9.52;1.60;;;16.20;1.00;;;;;;4974322;28;20407;-37
2023/01/11 05:07:10;;;;;;;8.88;1.75;;;16.20;1.00;;;;;;4974521;28;20039;-37
2023/01/11 05:09:37;;;;;;;5.63;2.05;;;16.20;1.00;;;;;;4970444;28;20043;-37
2023/01/11 05:12:03;;;;;;;6.38;2.17;;;16.20;1.00;;;;;;4973874;28;20456;-38
2023/01/11 05:14:30;;;;;;;8.48;1.85;;;16.20;1.00;;;;;;4973822;28;20145;-37
2023/01/11 05:16:57;;;;;;;8.25;1.83;;;16.20;1.00;;;;;;4974330;28;20557;-37
2023/01/11 05:19:24;;;;;;;11.98;2.00;;;16.20;1.00;;;;;;4974230;28;20380;-36
2023/01/11 05:21:51;;;;;;;23.17;4.97;;;16.20;1.00;;;;;;4974122;28;20414;-36
2023/01/11 05:24:18;;;;;;;17.88;4.00;;;16.10;1.00;;;;;;4973883;28;20047;-36
2023/01/11 05:26:47;;;;;;;23.88;2.92;;;16.10;1.00;;;;;;4974106;28;20043;-35
2023/01/11 05:29:19;;;;;;;18.77;3.45;;;16.10;1.00;;;;;;4974181;28;20053;-36
2023/01/11 05:31:46;;;;;;;18.65;2.33;;;16.10;1.00;;;;;;4974157;28;20693;-36
2023/01/11 05:34:15;;;;;;;26.88;5.00;;;16.10;1.00;;;;;;4973731;28;20053;-36
2023/01/11 05:36:42;;;;;;;14.88;2.47;;;16.10;1.00;;;;;;4973872;28;20109;-37
2023/01/11 05:39:11;;;;;;;18.40;3.25;;;16.10;1.00;;;;;;4973858;28;20051;-37
2023/01/11 05:41:38;;;;;;;12.02;2.40;;;16.10;1.00;;;;;;4973896;28;20125;-37
2023/01/11 05:46:54;;;;;;;17.98;2.97;;;16.10;1.00;;;;;;4973761;28;20101;-38
2023/01/11 05:49:21;;;;;;;10.77;2.17;;;16.10;1.00;;;;;;4973781;28;20038;-36
2023/01/11 05:51:48;;;;;;;12.00;2.50;;;16.00;1.00;;;;;;4973632;28;20053;-37
2023/01/11 05:54:15;;;;;;;11.95;2.42;;;16.00;1.00;;;;;;4973361;28;20042;-37
2023/01/11 05:56:42;;;;;;;14.25;3.15;;;16.00;1.00;;;;;;4973455;28;20182;-36
2023/01/11 05:59:09;;;;;;;8.63;2.03;;;16.00;1.00;;;;;;4973509;28;20514;-37
2023/01/11 06:01:36;;;;;;;10.48;1.67;;;16.00;1.00;;;;;;4973539;28;20054;-37
2023/01/11 06:04:03;;;;;;;5.30;1.55;;;16.00;1.00;;;;;;4973220;28;20034;-38
2023/01/11 06:06:30;;;;;;;9.23;1.48;;;16.00;1.00;;;;;;4973156;28;20553;-37
2023/01/11 06:08:57;;;;;;;7.78;1.70;;;16.00;1.00;;;;;;4973449;28;20510;-36
2023/01/11 06:11:24;;;;;;;16.55;2.40;;;16.00;1.00;;;;;;4973446;28;20055;-35
2023/01/11 06:13:51;;;;;;;10.05;1.75;;;16.00;1.00;;;;;;4972865;28;20510;-36
2023/01/11 06:16:19;;;;;;;7.40;1.73;;;16.00;1.00;;;;;;4973382;28;20125;-37
2023/01/11 06:18:49;;;;;;;7.35;2.13;;;16.00;1.00;;;;;;4973319;28;20567;-37
2023/01/11 06:21:17;;;;;;;8.48;2.25;;;16.00;1.00;;;;;;4973279;28;20041;-37
2023/01/11 06:23:46;;;;;;;9.35;2.03;;;16.00;1.00;;;;;;4973208;28;20057;-36
2023/01/11 06:26:15;;;;;;;9.07;1.80;;;15.90;1.00;;;;;;4973185;28;20105;-37
2023/01/11 06:28:42;;;;;;;7.68;1.98;;;15.90;1.00;;;;;;4971802;28;20055;-36
2023/01/11 06:31:10;;;;;;;10.07;1.55;;;15.90;1.00;;;;;;4973335;28;20474;-36
2023/01/11 06:33:37;;;;;;;8.18;2.03;;;15.90;1.00;;;;;;4972769;28;20089;-37
2023/01/11 06:36:09;;;;;;;9.45;1.52;;;15.90;1.00;;;;;;4973122;28;20055;-38
2023/01/11 06:38:36;;;;;;;8.77;1.85;;;15.90;1.00;;;;;;4973015;28;20038;-37
2023/01/11 06:41:04;;;;;;;6.10;1.50;;;15.90;1.00;;;;;;4972817;28;20038;-37
2023/01/11 06:43:31;;;;;;;7.32;1.38;;;15.90;1.00;;;;;;4972653;28;20047;-39
2023/01/11 06:45:59;;;;;;;7.90;1.25;;;15.90;1.00;;;;;;4972970;28;20039;-38
2023/01/11 06:48:26;;;;;;;7.07;1.48;;;15.90;1.00;;;;;;4973138;28;20047;-36
2023/01/11 06:50:56;;;;;;;5.10;1.30;;;15.90;1.00;;;;;;4973020;28;20076;-37
2023/01/11 06:53:24;;;;;;;5.57;1.27;;;15.90;1.00;;;;;;4972520;28;20053;-37
2023/01/11 06:55:56;;;;;;;8.05;1.17;;;15.90;1.00;;;;;;4973195;28;20411;-37
2023/01/11 06:58:24;;;;;;;6.78;1.02;;;15.80;1.00;;;;;;4972918;28;20042;-37
2023/01/11 07:00:52;;;;;;;11.45;2.33;;;15.80;1.00;;;;;;4973145;28;20465;-38
2023/01/11 07:03:20;;;;;;;10.80;1.75;;;15.80;1.00;;;;;;4972528;28;20047;-44
2023/01/11 07:05:46;;;;;;;6.47;1.83;;;15.80;1.00;;;;;;4972890;28;20109;-37
2023/01/11 07:08:13;;;;;;;4.30;1.00;;;15.80;1.00;;;;;;4972623;28;20559;-37
2023/01/11 07:10:42;;;;;;;5.20;1.27;;;15.80;1.00;;;;;;4971607;28;20086;-37
2023/01/11 07:13:11;;;;;;;11.63;1.75;;;15.80;1.00;;;;;;4972480;28;20050;-37
2023/01/11 07:15:37;;;;;;;7.85;1.67;;;15.80;1.00;;;;;;4972688;28;20066;-37
2023/01/11 07:18:04;;;;;;;9.20;1.90;;;15.80;1.00;;;;;;4972784;28;20093;-37
2023/01/11 07:20:31;;;;;;;6.25;1.23;;;15.80;1.00;;;;;;4976148;28;20058;-37
2023/01/11 07:22:59;;;;;;;5.80;1.60;;;15.80;1.00;;;;;;4976181;28;20043;-37
2023/01/11 07:25:27;;;;;;;9.95;1.77;;;15.80;1.00;;;;;;4976378;28;20042;-36
2023/01/11 07:27:58;;;;;;;5.82;1.50;;;15.80;1.00;;;;;;4975164;28;20058;-37
2023/01/11 07:30:27;;;;;;;7.85;1.33;;;15.80;1.00;;;;;;4976270;28;20130;-36
2023/01/11 07:32:56;;;;;;;6.93;1.27;;;15.80;1.00;;;;;;4976027;28;20125;-38
2023/01/11 07:35:23;;;;;;;7.82;1.73;;;15.80;1.00;;;;;;4976056;28;20133;-37
2023/01/11 07:37:50;;;;;;;5.32;1.70;;;15.80;1.00;;;;;;4974908;28;20055;-37
2023/01/11 07:40:17;;;;;;;8.35;1.13;;;15.70;1.00;;;;;;4976037;28;20761;-37
2023/01/11 07:45:35;;;;;;;6.63;1.30;;;15.70;1.00;;;;;;4975608;28;20577;-37
2023/01/11 07:48:12;;;;;;;6.43;1.25;;;15.70;1.00;;;;;;4974930;28;20058;-37
2023/01/11 07:50:39;;;;;;;7.32;1.00;;;15.70;1.00;;;;;;4970440;28;20113;-37
2023/01/11 07:53:09;;;;;;;11.00;1.38;;;15.70;1.00;;;;;;4969088;28;20046;-46
2023/01/11 07:55:38;;;;;;;4.32;1.30;;;15.70;1.00;;;;;;4971103;28;20105;-38
2023/01/11 07:58:06;;;;;;;5.70;1.30;;;15.70;1.00;;;;;;4968995;28;20137;-38
2023/01/11 08:00:32;;;;;;;9.05;1.35;;;15.70;1.00;;;;;;4968565;28;20490;-37
2023/01/11 08:03:00;;;;;;;4.97;1.50;;;15.70;1.00;;;;;;4973408;28;20486;-36
2023/01/11 08:05:28;;;;;;;4.60;1.30;;;15.70;1.00;;;;;;4975488;28;20051;-37
2023/01/11 08:07:55;;;;;;;6.78;1.20;;;15.70;1.00;;;;;;4975498;28;20544;-37
2023/01/11 08:10:21;;;;;;;2.67;0.90;;;15.70;1.00;;;;;;4975467;28;20046;-37
2023/01/11 08:15:41;;;;;;;5.35;2.05;;;15.70;1.00;;;;;;4975448;28;20054;-37
2023/01/11 08:18:10;;;;;;;2.85;0.63;;;15.70;1.00;;;;;;4975494;28;20050;-37
2023/01/11 08:20:37;;;;;;;6.53;1.58;;;15.70;1.00;;;;;;4975446;28;20174;-36
2023/01/11 08:23:06;;;;;;;7.82;1.42;;;15.70;1.00;;;;;;4974897;28;20118;-37
2023/01/11 08:25:34;;;;;;;6.43;1.10;;;15.70;1.00;;;;;;4975255;28;20114;-37
2023/01/11 08:28:05;;;;;;;7.32;1.10;;;15.70;1.00;;;;;;4973917;28;20038;-37
2023/01/11 08:30:32;;;;;;;6.65;1.73;;;15.60;1.00;;;;;;4974848;28;20116;-38
2023/01/11 08:33:03;;;;;;;5.80;1.05;;;15.60;1.00;;;;;;4973605;28;20051;-36
2023/01/11 08:35:35;;;;;;;6.15;1.00;;;15.60;1.00;;;;;;4974992;28;20043;-36
2023/01/11 08:38:02;;;;;;;4.22;0.65;;;15.60;1.00;;;;;;4975070;28;20050;-37
2023/01/11 08:40:29;;;;;;;5.93;1.02;;;15.60;1.00;;;;;;4974785;28;20074;-37
2023/01/11 08:42:56;;;;;;;4.57;0.82;;;15.60;1.00;;;;;;4974655;28;20090;-37
2023/01/11 08:45:23;;;;;;;4.20;1.58;;;15.60;1.00;;;;;;4974793;28;20094;-37
2023/01/11 08:47:50;;;;;;;3.17;1.48;;;15.60;1.00;;;;;;4974722;28;20101;-37
2023/01/11 08:50:18;;;;;;;8.45;1.10;;;15.60;1.00;;;;;;4974722;28;20159;-38
2023/01/11 08:52:46;;;;;;;3.42;1.02;;;15.60;1.00;;;;;;4974382;28;20050;-37
2023/01/11 08:55:13;;;;;;;6.30;1.25;;;15.60;1.00;;;;;;4974542;28;20046;-36
2023/01/11 08:57:40;;;;;;;4.88;0.88;;;15.60;1.00;;;;;;4974695;28;20047;-36
2023/01/11 09:00:08;;;;;;;6.22;1.60;;;15.60;1.00;;;;;;4973403;28;20042;-37
2023/01/11 09:02:35;;;;;;;4.45;1.42;;;15.60;1.00;;;;;;4974323;28;20045;-37
2023/01/11 09:05:02;;;;;;;7.47;1.70;;;15.60;1.00;;;;;;4974289;28;20046;-37
2023/01/11 09:07:28;;;;;;;5.35;0.80;;;15.60;1.00;;;;;;4974494;28;20047;-37
2023/01/11 09:09:55;;;;;;;4.00;1.02;;;15.60;1.00;;;;;;4974688;28;20454;-37
2023/01/11 09:12:26;;;;;;;6.20;0.68;;;15.60;1.00;;;;;;4974118;28;20105;-37
2023/01/11 09:15:05;;;;;;;3.28;1.00;;;15.60;1.00;;;;;;4972950;28;20518;-37
2023/01/11 09:17:33;;;;;;;5.00;1.02;;;15.60;1.00;;;;;;4974299;28;20059;-36
2023/01/11 09:20:11;;;;;;;9.68;3.40;;;15.60;1.00;;;;;;4974048;28;20077;-37
2023/01/11 09:22:39;;;;;;;4.63;1.27;;;15.60;1.00;;;;;;4973880;28;20307;-37
2023/01/11 09:25:09;;;;;;;7.07;1.60;;;15.60;1.00;;;;;;4974178;28;20061;-36
2023/01/11 09:27:47;;;;;;;4.82;0.85;;;15.60;1.00;;;;;;4973917;28;20129;-36
2023/01/11 09:30:20;;;;;;;5.63;0.60;;;15.60;1.00;;;;;;4974048;28;20490;-36
2023/01/11 09:32:48;;;;;;;3.60;1.10;;;15.60;1.00;;;;;;4973796;28;20551;-37
2023/01/11 09:35:15;;;;;;;7.28;1.23;;;15.60;1.00;;;;;;4973983;28;20105;-37
2023/01/11 09:37:54;;;;;;;4.82;1.52;;;15.60;1.00;;;;;;4972664;28;20039;-36
2023/01/11 09:40:40;;;;;;;5.25;1.83;;;15.60;1.00;;;;;;4973734;28;20051;-36
2023/01/11 09:43:13;;;;;;;6.90;1.02;;;15.60;1.00;;;;;;4973188;28;20046;-36
2023/01/11 09:45:45;;;;;;;3.35;0.95;;;15.70;1.00;;;;;;4973697;28;20070;-36
2023/01/11 09:48:31;;;;;;;5.18;0.77;;;15.70;1.00;;;;;;4973798;28;20038;-37
2023/01/11 09:51:00;;;;;;;5.00;0.88;;;15.60;1.00;;;;;;4973789;28;20491;-37
2023/01/11 09:53:33;;;;;;;4.53;1.75;;;15.70;1.00;;;;;;4972048;28;20054;-37
2023/01/11 09:56:03;;;;;;;5.90;1.23;;;15.70;1.00;;;;;;4973756;28;20046;-37
2023/01/11 09:58:52;;;;;;;7.38;1.60;;;15.70;1.00;;;;;;4973617;28;20047;-41
2023/01/11 10:01:48;;;;;;;4.53;1.15;;;15.70;1.00;;;;;;4973418;28;20049;-36
2023/01/11 10:04:39;;;;;;;5.43;1.58;;;15.70;1.00;;;;;;4973089;28;20105;-36
2023/01/11 10:07:09;;;;;;;3.85;1.02;;;15.70;1.00;;;;;;4973445;28;20043;-36
2023/01/11 10:09:59;;;;;;;6.55;1.90;;;15.80;1.00;;;;;;4973415;28;20055;-36
2023/01/11 10:13:07;;;;;;;7.03;1.60;;;15.80;1.00;;;;;;4971695;28;20068;-36
2023/01/11 10:16:15;;;;;;;5.88;1.42;;;15.80;1.00;;;;;;4973309;28;20532;-36
2023/01/11 10:19:28;;;;;;;5.25;1.20;;;15.80;1.00;;;;;;4972360;28;20055;-37
2023/01/11 10:22:22;;;;;;;5.72;1.60;;;15.80;1.00;;;;;;4971625;28;20082;-36
2023/01/11 10:25:09;;;;;;;5.53;1.25;;;15.80;1.00;;;;;;4973151;28;20109;-36
2023/01/11 10:27:44;;;;;;;8.43;1.45;;;15.80;1.00;;;;;;4973155;28;20043;-36
2023/01/11 10:30:35;;;;;;;3.63;0.95;;;15.90;1.00;;;;;;4971764;28;20047;-37
2023/01/11 10:33:23;;;;;;;3.78;0.85;;;15.90;1.00;;;;;;4972844;28;20058;-36
2023/01/11 10:36:13;;;;;;;5.55;1.92;;;15.90;1.00;;;;;;4973161;28;20050;-36
2023/01/11 10:41:37;;;;;;;5.55;1.20;;;15.90;1.00;;;;;;4972902;28;20043;-37
2023/01/11 10:44:17;;;;;;;2.92;0.75;;;15.90;1.00;;;;;;4972771;28;20034;-36
2023/01/11 10:46:51;;;;;;;5.47;1.45;;;15.90;1.00;;;;;;4971664;28;20065;-37
2023/01/11 10:49:30;;;;;;;;;;;15.90;1.00;;;;;;4972189;28;20047;-35
2023/01/11 10:52:34;;;;;;;7.20;1.77;;;15.90;1.00;;;;;;4972756;28;20020;-36
2023/01/11 10:55:11;;;;;;;8.38;1.60;;;15.90;1.00;;;;;;4976725;28;20050;-36
2023/01/11 10:58:10;;;;;;;7.75;1.80;;;16.00;1.00;;;;;;4975641;28;20047;-35
2023/01/11 11:01:07;;;;;;;6.38;2.30;;;16.00;1.00;;;;;;4974073;28;20065;-36
2023/01/11 11:03:48;;;;;;;4.82;1.30;;;16.00;1.00;;;;;;4976347;28;20071;-37
2023/01/11 11:06:17;;;;;;;6.18;1.35;;;16.00;1.00;;;;;;4976708;28;20125;-36
2023/01/11 11:08:56;;;;;;;8.90;1.40;;;16.00;1.00;;;;;;4976766;28;20043;-36
2023/01/11 11:11:51;;;;;;;8.60;1.98;;;16.00;1.00;;;;;;4976608;28;20054;-36
2023/01/11 11:14:59;;;;;;;8.43;2.03;;;16.00;1.00;;;;;;4975148;28;20039;-36
2023/01/11 11:17:35;;;;;;;7.15;1.15;;;16.00;1.00;;;;;;4935694;29;20054;-36
2023/01/11 11:20:18;;;;;;;9.45;1.15;;;16.00;1.00;;;;;;4972416;28;20471;-36
2023/01/11 11:22:48;;;;;;;8.43;1.33;;;16.00;1.00;;;;;;4976046;28;20039;-36
2023/01/11 11:25:26;;;;;;;5.88;1.30;;;16.00;1.00;;;;;;4976393;28;20043;-36
2023/01/11 11:28:14;;;;;;;8.23;1.67;;;16.00;1.00;;;;;;4976262;28;20486;-36
2023/01/11 11:30:43;;;;;;;5.55;1.30;;;16.00;1.00;;;;;;4975012;28;20047;-36
2023/01/11 11:33:19;;;;;;;11.40;2.25;;;16.00;1.00;;;;;;4975983;28;20047;-36
2023/01/11 11:35:58;;;;;;;8.20;2.40;;;16.00;1.00;;;;;;4976195;28;20137;-37
2023/01/11 11:38:28;;;;;;;5.25;1.50;;;16.00;1.00;;;;;;4976123;28;20047;-37
2023/01/11 11:40:57;;;;;;;4.78;2.17;;;16.00;1.00;;;;;;4975950;28;20050;-36
2023/01/11 11:43:25;;;;;;;7.47;1.55;;;16.00;1.00;;;;;;4975665;28;20082;-36
2023/01/11 11:46:16;;;;;;;7.45;2.22;;;16.00;1.00;;;;;;4975906;28;20130;-37
2023/01/11 11:49:24;;;;;;;;;;;;;;;;;;;;;
2023/01/11 11:52:13;;;;;;;7.88;2.75;;;16.00;1.00;;;;;;4975695;28;20051;-36
2023/01/11 11:54:59;;;;;;;11.15;2.88;;;16.00;1.00;;;;;;4974552;28;20074;-37
2023/01/11 11:57:46;;;;;;;8.48;2.17;;;16.00;1.00;;;;;;4934547;29;20540;-34
2023/01/11 12:00:40;;;;;;;7.80;1.73;;;16.00;1.00;;;;;;4934965;29;20448;-37
2023/01/11 12:03:31;;;;;;;6.85;2.50;;;16.00;1.00;;;;;;4934664;29;20075;-37
2023/01/11 12:06:06;;;;;;;7.75;2.47;;;16.00;1.00;;;;;;4934028;29;20051;-37
2023/01/11 12:08:34;;;;;;;8.27;2.45;;;16.00;1.00;;;;;;4934868;29;20056;-37
2023/01/11 12:11:05;;;;;;;6.80;2.15;;;16.00;1.00;;;;;;4934878;29;20055;-37
2023/01/11 12:13:36;;;;;;;8.85;2.85;;;15.90;1.00;;;;;;4934367;29;20059;-37
2023/01/11 12:16:07;;;;;;;9.20;1.85;;;16.00;1.00;;;;;;4934521;29;20048;-37
2023/01/11 12:18:36;;;;;;;10.85;2.30;;;15.90;1.00;;;;;;4934661;29;20051;-36
2023/01/11 12:21:28;;;;;;;5.47;1.77;;;16.00;1.00;;;;;;4934383;29;20047;-36
2023/01/11 12:24:18;;;;;;;6.57;2.03;;;15.90;1.00;;;;;;4934238;29;20118;-36
2023/01/11 12:26:59;;;;;;;8.68;2.25;;;15.90;1.00;;;;;;4934332;29;20076;-36
2023/01/11 12:29:49;;;;;;;5.35;2.03;;;15.90;1.00;;;;;;4934550;29;20079;-37
2023/01/11 12:32:34;;;;;;;9.95;2.22;;;15.90;1.00;;;;;;4934140;29;20569;-37
2023/01/11 12:35:26;;;;;;;11.88;2.03;;;15.90;1.00;;;;;;4955017;28;20196;-37
2023/01/11 12:38:36;;;;;;;8.90;1.50;;;15.90;1.00;;;;;;4975081;28;20057;-38
2023/01/11 12:41:16;;;;;;;7.15;2.00;;;15.90;1.00;;;;;;4974934;28;20042;-37
2023/01/11 12:43:51;;;;;;;8.50;1.70;;;15.90;1.00;;;;;;4974482;28;20043;-37
2023/01/11 12:46:31;;;;;;;6.63;1.67;;;15.90;1.00;;;;;;4973690;28;20043;-37
2023/01/11 12:48:58;;;;;;;10.40;2.42;;;15.90;1.00;;;;;;4974967;28;20039;-36
2023/01/11 12:52:00;;;;;;;6.85;1.45;;;15.90;1.00;;;;;;4974729;28;20611;-37
2023/01/11 12:54:51;;;;;;;8.77;1.65;;;15.90;1.00;;;;;;4974629;28;20054;-36
2023/01/11 12:57:49;;;;;;;8.65;2.15;;;15.90;1.00;;;;;;4974769;28;20055;-37
2023/01/11 13:00:35;;;;;;;7.57;2.30;;;15.90;1.00;;;;;;4974591;28;20043;-37
2023/01/11 13:03:13;;;;;;;8.15;1.88;;;15.90;1.00;;;;;;4974286;28;20402;-37
2023/01/11 13:06:13;;;;;;;9.05;1.60;;;15.90;1.00;;;;;;4974501;28;20054;-36
2023/01/11 13:08:42;;;;;;;7.25;1.25;;;15.90;1.00;;;;;;4973185;28;20517;-37
2023/01/11 13:11:48;;;;;;;10.15;1.60;;;15.90;1.00;;;;;;4974528;28;20490;-37
2023/01/11 13:14:38;;;;;;;7.60;2.20;;;15.90;1.00;;;;;;4974062;28;20406;-36
2023/01/11 13:17:20;;;;;;;8.85;2.95;;;15.90;1.00;;;;;;4953406;28;20417;-37
2023/01/11 13:20:15;;;;;;;12.68;2.38;;;15.90;1.00;;;;;;4974398;28;20054;-36
2023/01/11 13:22:58;;;;;;;6.05;1.90;;;15.90;1.00;;;;;;4973875;28;20453;-36
2023/01/11 13:25:28;;;;;;;9.85;2.20;;;15.90;1.00;;;;;;4974070;28;20093;-36
2023/01/11 13:27:57;;;;;;;12.73;1.80;;;15.80;1.00;;;;;;4974145;28;20070;-36
2023/01/11 13:30:25;;;;;;;9.02;1.58;;;15.90;1.00;;;;;;4974147;28;20050;-37
2023/01/11 13:33:01;;;;;;;8.75;2.38;;;15.80;1.00;;;;;;4973777;28;20109;-37
2023/01/11 13:35:39;;;;;;;3.33;1.38;;;15.80;1.00;;;;;;4973983;28;20434;-36
2023/01/11 13:38:33;;;;;;;6.68;1.23;;;15.80;1.00;;;;;;4974034;28;20042;-37
2023/01/11 13:41:20;;;;;;;5.88;1.73;;;15.80;1.00;;;;;;4972632;28;20047;-37
2023/01/11 13:44:12;;;;;;;9.70;1.58;;;15.80;1.00;;;;;;4973376;28;20049;-37
2023/01/11 13:47:02;;;;;;;8.70;2.20;;;15.80;1.00;;;;;;4973807;28;20038;-37
2023/01/11 13:49:57;;;;;;;9.63;2.40;;;15.80;1.00;;;;;;4973743;28;20106;-37
2023/01/11 13:52:40;;;;;;;6.18;2.10;;;15.80;1.00;;;;;;4969646;28;20070;-37
2023/01/11 13:55:10;;;;;;;8.70;2.00;;;15.80;1.00;;;;;;4973666;28;20051;-37